Atmospheric History
06/10/2012 10:45  to  6/11/2012 10:45
Change End Date:
To complete the export process:
1) Select all of the data below
2) Copy the data to the clipboard
3) Open a word processor such as Notepad
4) Paste the data into the word processor
5) Save the file

Date/Time (MDT), AirTemp, RH, Dewpoint ,AvgWindSpeed, GustWindSpeed, WindDirection, PrecipType, PrecipIntensity, PrecipAccumulation, PrecipRate
06/11/2012 10:40, 50, 50 , 32 ,4, 11, NW, None, None , ,  
06/11/2012 10:40, 50, 51 , 33 ,4, 11, NW, None, None , ,  
06/11/2012 10:30, 49, 52 , 32 ,4, 9, W, None, None , ,  
06/11/2012 10:26, 49, 53 , 33 ,7, 10, NW, None, None , ,  
06/11/2012 10:20, 49, 55 , 33 ,7, 11, W, None, None , ,  
06/11/2012 10:10, 48, 56 , 34 ,4, 9, NW, None, None , ,  
06/11/2012 10:10, 48, 56 , 34 ,4, 9, NW, None, None , ,  
06/11/2012 10:00, 49, 55 , 34 ,4, 7, NW, None, None , ,  
06/11/2012 09:54, 48, 56 , 33 ,2, 8, NW, None, None , ,  
06/11/2012 09:50, 47, 57 , 33 ,6, 8, NW, None, None , ,  
06/11/2012 09:40, 47, 55 , 32 ,4, 7, NW, None, None , ,  
06/11/2012 09:39, 47, 56 , 33 ,4, 7, NW, None, None , ,  
06/11/2012 09:30, 47, 58 , 33 ,4, 8, NW, None, None , ,  
06/11/2012 09:19, 45, 62 , 33 ,5, 9, W, None, None , ,  
06/11/2012 09:09, 45, 62 , 33 ,6, 9, SW, None, None , ,  
06/11/2012 09:09, 45, 61 , 33 ,6, 9, W, None, None , ,  
06/11/2012 08:59, 46, 61 , 33 ,5, 9, NW, None, None , ,  
06/11/2012 08:58, 45, 61 , 33 ,5, 9, W, None, None , ,  
06/11/2012 08:49, 45, 60 , 32 ,7, 9, W, None, None , ,  
06/11/2012 08:40, 45, 60 , 32 ,6, 9, NW, None, None , ,  
06/11/2012 08:39, 45, 61 , 32 ,6, 9, NW, None, None , ,  
06/11/2012 08:29, 44, 60 , 31 ,6, 9, NW, None, None , ,  
06/11/2012 08:29, 44, 61 , 32 ,6, 8, W, None, None , ,  
06/11/2012 08:19, 43, 64 , 32 ,4, 6, W, None, None , ,  
06/11/2012 08:09, 42, 68 , 33 ,3, 5, W, None, None , ,  
06/11/2012 08:09, 42, 67 , 33 ,3, 5, W, None, None , ,  
06/11/2012 07:59, 42, 68 , 32 ,4, 5, W, None, None , ,  
06/11/2012 07:58, 42, 68 , 32 ,4, 5, W, None, None , ,  
06/11/2012 07:49, 40, 82 , 35 ,0, 1, NW, None, None , ,  
06/11/2012 07:39, 39, 82 , 34 ,0, 1, NE, None, None , ,  
06/11/2012 07:29, 38, 85 , 34 ,1, 1, NE, None, None , ,  
06/11/2012 07:29, 38, 85 , 34 ,1, 1, NE, None, None , ,  
06/11/2012 07:19, 37, 86 , 33 ,1, 2, SW, None, None , ,  
06/11/2012 07:09, 37, 84 , 33 ,2, 3, SW, None, None , ,  
06/11/2012 07:09, 37, 84 , 33 ,2, 3, SW, None, None , ,  
06/11/2012 06:59, 38, 78 , 32 ,3, 4, SW, None, None , ,  
06/11/2012 06:52, 38, 78 , 32 ,4, 4, SW, None, None , ,  
06/11/2012 06:49, 38, 79 , 33 ,3, 4, W, None, None , ,  
06/11/2012 06:39, 36, 88 , 33 ,2, 3, W, None, None , ,  
06/11/2012 06:39, 36, 88 , 33 ,2, 3, W, None, None , ,  
06/11/2012 06:29, 34, 90 , 31 ,1, 1, W, None, None , ,  
06/11/2012 06:22, 34, 90 , 31 ,0, 0, N, None, None , ,  
06/11/2012 06:19, 34, 90 , 31 ,0, 1, N, None, None , ,  
06/11/2012 06:09, 34, 89 , 31 ,0, 3, NW, None, None , ,  
06/11/2012 06:08, 34, 89 , 31 ,0, 3, NW, None, None , ,  
06/11/2012 05:59, 34, 89 , 31 ,2, 4, NW, None, None , ,  
06/11/2012 05:54, 34, 89 , 31 ,2, 3, NW, None, None , ,  
06/11/2012 05:48, 34, 87 , 31 ,0, 2, NW, None, None , ,  
06/11/2012 05:39, 35, 86 , 31 ,2, 4, W, None, None , ,  
06/11/2012 05:38, 35, 86 , 32 ,1, 4, W, None, None , ,  
06/11/2012 05:28, 35, 86 , 32 ,4, 5, W, None, None , ,  
06/11/2012 05:23, 35, 86 , 31 ,4, 4, W, None, None , ,  
06/11/2012 05:18, 35, 86 , 32 ,3, 4, W, None, None , ,  
06/11/2012 05:09, 35, 86 , 31 ,3, 4, W, None, None , ,  
06/11/2012 05:08, 35, 86 , 32 ,3, 4, W, None, None , ,  
06/11/2012 04:59, 36, 86 , 32 ,2, 3, W, None, None , ,  
06/11/2012 04:58, 36, 86 , 32 ,2, 3, W, None, None , ,  
06/11/2012 04:48, 36, 85 , 32 ,3, 3, W, None, None , ,  
06/11/2012 04:39, 36, 85 , 32 ,2, 4, W, None, None , ,  
06/11/2012 04:38, 36, 84 , 32 ,2, 4, W, None, None , ,  
06/11/2012 04:28, 37, 83 , 32 ,2, 3, NW, None, None , ,  
06/11/2012 04:28, 37, 83 , 32 ,2, 3, NW, None, None , ,  
06/11/2012 04:18, 38, 82 , 33 ,1, 2, W, None, None , ,  
06/11/2012 04:10, 38, 80 , 33 ,1, 3, NW, None, None , ,  
06/11/2012 04:08, 38, 79 , 33 ,2, 3, W, None, None , ,  
06/11/2012 03:58, 38, 82 , 33 ,2, 3, W, None, None , ,  
06/11/2012 03:55, 38, 80 , 33 ,1, 3, W, None, None , ,  
06/11/2012 03:48, 38, 82 , 33 ,2, 2, W, None, None , ,  
06/11/2012 03:39, 38, 81 , 33 ,1, 2, SW, None, None , ,  
06/11/2012 03:38, 38, 81 , 33 ,1, 2, SW, None, None , ,  
06/11/2012 03:28, 38, 78 , 32 ,2, 4, SW, None, None , ,  
06/11/2012 03:28, 38, 78 , 32 ,2, 4, SW, None, None , ,  
06/11/2012 03:18, 38, 79 , 32 ,2, 4, NW, None, None , ,  
06/11/2012 03:09, 38, 78 , 32 ,2, 2, W, None, None , ,  
06/11/2012 03:08, 38, 78 , 32 ,2, 2, SW, None, None , ,  
06/11/2012 02:59, 39, 75 , 32 ,2, 2, SW, None, None , ,  
06/11/2012 02:58, 39, 75 , 32 ,2, 4, SW, None, None , ,  
06/11/2012 02:48, 40, 73 , 32 ,3, 7, W, None, None , ,  
06/11/2012 02:40, 39, 75 , 32 ,2, 6, NW, None, None , ,  
06/11/2012 02:38, 39, 75 , 32 ,2, 6, NW, None, None , ,  
06/11/2012 02:28, 40, 73 , 32 ,4, 6, SW, None, None , ,  
06/11/2012 02:26, 40, 75 , 33 ,2, 5, NW, None, None , ,  
06/11/2012 02:17, 40, 74 , 33 ,1, 3, NW, None, None , ,  
06/11/2012 02:07, 40, 74 , 33 ,2, 6, NW, None, None , ,  
06/11/2012 01:59, 40, 75 , 33 ,2, 6, SW, None, None , ,  
06/11/2012 01:57, 40, 75 , 33 ,0, 9, N, None, None , ,  
06/11/2012 01:47, 40, 74 , 33 ,3, 7, W, None, None , ,  
06/11/2012 01:40, 40, 74 , 33 ,4, 9, NW, None, None , ,  
06/11/2012 01:37, 40, 75 , 33 ,3, 9, NW, None, None , ,  
06/11/2012 01:27, 40, 74 , 33 ,6, 12, W, None, None , ,  
06/11/2012 01:26, 40, 74 , 33 ,4, 12, NW, None, None , ,  
06/11/2012 01:17, 40, 74 , 33 ,7, 16, W, None, None , ,  
06/11/2012 01:10, 40, 76 , 33 ,6, 11, W, None, None , ,  
06/11/2012 01:07, 40, 76 , 33 ,6, 10, NW, None, None , ,  
06/11/2012 00:57, 40, 76 , 33 ,6, 12, W, None, None , ,  
06/11/2012 00:52, 40, 77 , 33 ,4, 12, W, None, None , ,  
06/11/2012 00:47, 40, 77 , 33 ,7, 14, NW, None, None , ,  
06/11/2012 00:40, 40, 78 , 34 ,8, 14, W, None, None , ,  
06/11/2012 00:37, 40, 80 , 34 ,7, 14, NW, None, None , ,  
06/11/2012 00:28, 40, 82 , 35 ,5, 11, W, None, None , ,  
06/11/2012 00:27, 39, 82 , 35 ,5, 11, NW, None, None , ,  
06/11/2012 00:17, 40, 81 , 34 ,6, 12, NW, None, None , ,  
06/11/2012 00:07, 40, 80 , 34 ,7, 16, W, None, None , ,  
06/10/2012 23:57, 40, 81 , 35 ,7, 13, W, None, None , ,  
06/10/2012 23:47, 40, 80 , 35 ,7, 12, W, None, None , ,  
06/10/2012 23:40, 40, 79 , 35 ,3, 12, NW, None, None , ,  
06/10/2012 23:37, 40, 78 , 34 ,7, 13, W, None, None , ,  
06/10/2012 23:27, 41, 76 , 34 ,5, 12, NW, None, None , ,  
06/10/2012 23:26, 41, 76 , 34 ,6, 12, W, None, None , ,  
06/10/2012 23:17, 41, 74 , 34 ,6, 14, NW, None, None , ,  
06/10/2012 23:07, 41, 73 , 33 ,7, 13, NW, None, None , ,  
06/10/2012 22:59, 41, 74 , 33 ,6, 15, W, None, None , ,  
06/10/2012 22:57, 41, 75 , 34 ,6, 15, W, None, None , ,  
06/10/2012 22:46, 41, 76 , 34 ,6, 14, W, None, None , ,  
06/10/2012 22:36, 41, 77 , 34 ,9, 15, W, None, None , ,  
06/10/2012 22:29, 41, 76 , 34 ,8, 17, W, None, None , ,  
06/10/2012 22:26, 41, 75 , 34 ,9, 17, NW, None, None , ,  
06/10/2012 22:16, 41, 73 , 33 ,7, 16, W, None, None , ,  
06/10/2012 22:06, 41, 71 , 33 ,9, 17, NW, None, None , ,  
06/10/2012 21:58, 42, 70 , 33 ,12, 18, NW, None, None , ,  
06/10/2012 21:56, 42, 70 , 33 ,11, 21, NW, None, None , ,  
06/10/2012 21:46, 42, 69 , 33 ,12, 25, NW, None, None , ,  
06/10/2012 21:39, 42, 69 , 33 ,16, 25, NW, None, None , ,  
06/10/2012 21:36, 42, 68 , 32 ,16, 23, NW, None, None , ,  
06/10/2012 21:26, 42, 68 , 33 ,16, 27, NW, None, None , ,  
06/10/2012 21:21, 42, 67 , 33 ,14, 24, NW, None, None , ,  
06/10/2012 21:16, 42, 68 , 33 ,9, 17, NW, None, None , ,  
06/10/2012 21:09, 43, 67 , 33 ,11, 16, NW, None, None , ,  
06/10/2012 21:06, 43, 67 , 33 ,11, 16, NW, None, None , ,  
06/10/2012 20:56, 43, 68 , 33 ,11, 17, NW, None, None , ,  
06/10/2012 20:51, 43, 68 , 33 ,9, 17, N, None, None , ,  
06/10/2012 20:46, 43, 68 , 33 ,7, 18, NW, None, None , ,  
06/10/2012 20:39, 43, 67 , 33 ,9, 23, NW, None, None , ,  
06/10/2012 20:36, 43, 67 , 33 ,7, 23, NW, None, None , ,  
06/10/2012 20:26, 43, 67 , 33 ,12, 24, NW, None, None , ,  
06/10/2012 20:21, 43, 67 , 33 ,14, 24, NW, None, None , ,  
06/10/2012 20:16, 44, 67 , 33 ,12, 23, NW, None, None , ,  
06/10/2012 20:09, 44, 67 , 34 ,6, 19, NW, None, None , ,  
06/10/2012 20:06, 44, 67 , 34 ,10, 19, W, None, None , ,  
06/10/2012 19:56, 44, 66 , 34 ,9, 20, NW, None, None , ,  
06/10/2012 19:53, 44, 66 , 33 ,11, 21, W, None, None , ,  
06/10/2012 19:46, 44, 67 , 34 ,9, 19, NW, None, None , ,  
06/10/2012 19:39, 44, 66 , 34 ,11, 22, NW, None, None , ,  
06/10/2012 19:36, 44, 66 , 33 ,14, 24, NW, None, None , ,  
06/10/2012 19:26, 44, 66 , 34 ,10, 24, NW, None, None , ,  
06/10/2012 19:22, 44, 66 , 33 ,11, 24, NW, None, None , ,  
06/10/2012 19:15, 44, 65 , 33 ,12, 20, NW, None, None , ,  
06/10/2012 19:10, 44, 66 , 34 ,11, 20, NW, None, None , ,  
06/10/2012 19:05, 44, 66 , 33 ,12, 21, NW, None, None , ,  
06/10/2012 18:56, 44, 66 , 33 ,12, 21, NW, None, None , ,  
06/10/2012 18:55, 44, 66 , 33 ,12, 21, NW, None, None , ,  
06/10/2012 18:45, 44, 67 , 34 ,9, 20, NW, None, None , ,  
06/10/2012 18:39, 44, 66 , 33 ,13, 22, NW, None, None , ,  
06/10/2012 18:35, 44, 67 , 34 ,9, 22, NW, None, None , ,  
06/10/2012 18:25, 44, 67 , 34 ,10, 22, NW, None, None , ,  
06/10/2012 18:21, 44, 67 , 34 ,8, 22, NW, None, None , ,  
06/10/2012 18:15, 44, 67 , 34 ,12, 22, NW, None, None , ,  
06/10/2012 18:09, 44, 67 , 33 ,12, 24, NW, None, None , ,  
06/10/2012 18:05, 44, 67 , 34 ,12, 24, NW, None, None , ,  
06/10/2012 17:58, 44, 68 , 34 ,9, 20, NW, None, None , ,  
06/10/2012 17:55, 44, 68 , 34 ,11, 20, NW, None, None , ,  
06/10/2012 17:45, 43, 69 , 34 ,12, 21, NW, None, None , ,  
06/10/2012 17:35, 43, 71 , 35 ,12, 22, NW, None, None , ,  
06/10/2012 17:29, 43, 70 , 34 ,12, 22, NW, None, None , ,  
06/10/2012 17:25, 43, 71 , 34 ,14, 22, NW, None, None , ,  
06/10/2012 17:15, 42, 73 , 34 ,10, 23, NW, None, None , ,  
06/10/2012 17:09, 42, 73 , 34 ,14, 23, NW, None, None , ,  
06/10/2012 17:05, 42, 73 , 34 ,16, 24, NW, None, None , ,  
06/10/2012 16:55, 41, 75 , 34 ,12, 18, NW, None, None , ,  
06/10/2012 16:55, 41, 76 , 35 ,11, 18, NW, None, None , ,  
06/10/2012 16:45, 41, 82 , 36 ,8, 17, NW, None, None , ,  
06/10/2012 16:39, 40, 84 , 36 ,6, 12, NW, None, None , ,  
06/10/2012 16:35, 40, 84 , 36 ,8, 12, NW, None, None , ,  
06/10/2012 16:25, 40, 85 , 36 ,6, 12, NW, None, None , ,  
06/10/2012 16:22, 40, 86 , 36 ,6, 11, NW, None, None , ,  
06/10/2012 16:15, 40, 87 , 37 ,6, 14, W, None, None , ,  
06/10/2012 16:10, 40, 87 , 36 ,8, 16, NW, Yes, , ,  
06/10/2012 16:05, 39, 87 , 36 ,7, 17, NW, Yes, , ,  
06/10/2012 15:58, 39, 87 , 36 ,11, 19, NW, Yes, , ,  
06/10/2012 15:55, 40, 88 , 37 ,9, 19, NW, Yes, , ,  
06/10/2012 15:45, 39, 87 , 36 ,10, 19, NW, Yes, , ,  
06/10/2012 15:39, 39, 86 , 36 ,11, 21, NW, Yes, , ,  
06/10/2012 15:34, 39, 87 , 36 ,11, 21, NW, Yes, , ,  
06/10/2012 15:24, 39, 86 , 35 ,14, 22, NW, Yes, , ,  
06/10/2012 15:21, 39, 87 , 36 ,12, 20, NW, Yes, , ,  
06/10/2012 15:14, 39, 87 , 36 ,11, 21, NW, Yes, , ,  
06/10/2012 15:09, 39, 87 , 36 ,12, 21, NW, Yes, , ,  
06/10/2012 15:04, 39, 86 , 36 ,7, 20, NW, Yes, , ,  
06/10/2012 14:57, 39, 85 , 35 ,11, 22, NW, Yes, , ,  
06/10/2012 14:54, 39, 85 , 35 ,11, 25, NW, Yes, , ,  
06/10/2012 14:44, 39, 83 , 34 ,16, 26, NW, Yes, , ,  
06/10/2012 14:39, 39, 82 , 34 ,18, 25, NW, Yes, , ,  
06/10/2012 14:34, 39, 82 , 34 ,15, 25, NW, Yes, , ,  
06/10/2012 14:24, 40, 81 , 35 ,14, 24, NW, Yes, , ,  
06/10/2012 14:21, 40, 82 , 35 ,10, 23, NW, Yes, , ,  
06/10/2012 14:14, 40, 80 , 34 ,16, 23, NW, Yes, , ,  
06/10/2012 14:09, 40, 80 , 34 ,15, 23, NW, Yes, , ,  
06/10/2012 14:04, 40, 80 , 34 ,17, 24, NW, Yes, , ,  
06/10/2012 13:54, 40, 81 , 34 ,12, 22, NW, Yes, , ,  
06/10/2012 13:53, 40, 81 , 34 ,14, 22, NW, Yes, , ,  
06/10/2012 13:44, 39, 82 , 34 ,11, 19, NW, Yes, , ,  
06/10/2012 13:39, 39, 83 , 34 ,11, 21, NW, Yes, , ,  
06/10/2012 13:34, 39, 82 , 34 ,10, 21, NW, Yes, , ,  
06/10/2012 13:24, 39, 81 , 34 ,14, 24, NW, Yes, , ,  
06/10/2012 13:24, 39, 82 , 34 ,14, 24, NW, Yes, , ,  
06/10/2012 13:14, 39, 82 , 34 ,8, 22, NW, Yes, , ,  
06/10/2012 13:09, 39, 82 , 34 ,13, 22, NW, Yes, , ,  
06/10/2012 13:04, 39, 81 , 34 ,14, 21, NW, Yes, , ,  
06/10/2012 12:57, 39, 82 , 34 ,12, 24, NW, Yes, , ,  
06/10/2012 12:54, 39, 82 , 34 ,14, 24, NW, Yes, , ,  
06/10/2012 12:44, 39, 80 , 33 ,12, 23, NW, Yes, , ,  
06/10/2012 12:39, 39, 78 , 33 ,12, 25, NW, Yes, , ,  
06/10/2012 12:34, 39, 78 , 33 ,16, 25, NW, Yes, , ,  
06/10/2012 12:24, 39, 78 , 33 ,14, 24, NW, Yes, , ,  
06/10/2012 12:23, 39, 78 , 33 ,13, 24, NW, Yes, , ,  
06/10/2012 12:14, 39, 78 , 33 ,14, 23, NW, Yes, , ,  
06/10/2012 12:03, 39, 77 , 33 ,12, 24, NW, Yes, , ,  
06/10/2012 11:55, 40, 72 , 32 ,14, 23, NW, Yes, , ,  
06/10/2012 11:53, 40, 72 , 32 ,10, 22, NW, Yes, , ,  
06/10/2012 11:43, 39, 74 , 32 ,12, 21, NW, None, None , ,  
06/10/2012 11:39, 39, 75 , 32 ,12, 21, NW, None, None , ,  
06/10/2012 11:33, 39, 76 , 32 ,11, 18, W, None, None , ,  
06/10/2012 11:23, 38, 79 , 32 ,9, 16, NW, Yes, , ,  
06/10/2012 11:13, 38, 78 , 32 ,7, 16, NW, Yes, , ,  
06/10/2012 11:03, 38, 77 , 31 ,7, 23, NW, Yes, , ,  
06/10/2012 10:59, 38, 76 , 31 ,12, 26, W, Yes, , ,  
06/10/2012 10:53, 39, 71 , 31 ,13, 26, NW, Yes, , ,  
Change End Date:
Copyright © 1998-2005 Surface Systems, Inc.
All Rights Reserved
Send comments about the data to:
SCAN Web ® is a registered trademark of Surface Systems, Inc.
SCAN Web Version 5.6